sensor_id;sensor_type;location;lat;lon;timestamp;pressure;altitude;pressure_sealevel;temperature;humidity
23059;BME280;30585;51.502;7.218;2022-11-20T00:02:06;149016.06;;;-4.88;100.00
23059;BME280;30585;51.502;7.218;2022-11-20T00:04:34;148993.09;;;-4.97;100.00
23059;BME280;30585;51.502;7.218;2022-11-20T00:07:02;149018.63;;;-4.87;100.00
23059;BME280;30585;51.502;7.218;2022-11-20T00:09:29;149025.00;;;-4.84;100.00
23059;BME280;30585;51.502;7.218;2022-11-20T00:11:57;149036.50;;;-4.79;100.00
23059;BME280;30585;51.502;7.218;2022-11-20T00:14:25;149026.31;;;-4.83;100.00
23059;BME280;30585;51.502;7.218;2022-11-20T00:16:54;149056.94;;;-4.71;100.00
23059;BME280;30585;51.502;7.218;2022-11-20T00:19:22;149062.03;;;-4.69;100.00
23059;BME280;30585;51.502;7.218;2022-11-20T00:21:49;149077.41;;;-4.63;100.00
23059;BME280;30585;51.502;7.218;2022-11-20T00:24:20;149082.47;;;-4.61;100.00
23059;BME280;30585;51.502;7.218;2022-11-20T00:26:47;149091.47;;;-4.57;100.00
23059;BME280;30585;51.502;7.218;2022-11-20T00:29:15;149110.59;;;-4.49;100.00
23059;BME280;30585;51.502;7.218;2022-11-20T00:31:43;149143.81;;;-4.36;100.00
23059;BME280;30585;51.502;7.218;2022-11-20T00:34:12;149151.50;;;-4.33;100.00
23059;BME280;30585;51.502;7.218;2022-11-20T00:36:40;149145.06;;;-4.35;100.00
23059;BME280;30585;51.502;7.218;2022-11-20T00:39:08;149155.31;;;-4.31;100.00
23059;BME280;30585;51.502;7.218;2022-11-20T00:41:35;149177.00;;;-4.23;100.00
23059;BME280;30585;51.502;7.218;2022-11-20T00:44:03;149155.31;;;-4.31;100.00
23059;BME280;30585;51.502;7.218;2022-11-20T00:46:31;149174.50;;;-4.24;100.00
23059;BME280;30585;51.502;7.218;2022-11-20T00:48:59;149159.13;;;-4.30;100.00
23059;BME280;30585;51.502;7.218;2022-11-20T00:51:28;149178.31;;;-4.22;100.00
23059;BME280;30585;51.502;7.218;2022-11-20T00:53:56;149182.13;;;-4.20;100.00
23059;BME280;30585;51.502;7.218;2022-11-20T00:56:24;149183.44;;;-4.20;100.00
23059;BME280;30585;51.502;7.218;2022-11-20T00:58:52;149165.50;;;-4.27;100.00
23059;BME280;30585;51.502;7.218;2022-11-20T01:01:21;149174.50;;;-4.24;100.00
23059;BME280;30585;51.502;7.218;2022-11-20T01:03:52;149170.63;;;-4.25;100.00
23059;BME280;30585;51.502;7.218;2022-11-20T01:06:21;149168.06;;;-4.26;100.00
23059;BME280;30585;51.502;7.218;2022-11-20T01:08:53;149157.88;;;-4.30;100.00
23059;BME280;30585;51.502;7.218;2022-11-20T01:11:23;149150.19;;;-4.33;100.00
23059;BME280;30585;51.502;7.218;2022-11-20T01:13:52;149146.38;;;-4.35;100.00
23059;BME280;30585;51.502;7.218;2022-11-20T01:16:24;149154.00;;;-4.32;100.00
23059;BME280;30585;51.502;7.218;2022-11-20T01:18:54;149168.06;;;-4.26;100.00
23059;BME280;30585;51.502;7.218;2022-11-20T01:21:24;149155.31;;;-4.31;100.00
23059;BME280;30585;51.502;7.218;2022-11-20T01:23:53;149128.44;;;-4.42;100.00
23059;BME280;30585;51.502;7.218;2022-11-20T01:26:23;149139.94;;;-4.38;100.00
23059;BME280;30585;51.502;7.218;2022-11-20T01:28:54;149127.19;;;-4.43;100.00
23059;BME280;30585;51.502;7.218;2022-11-20T01:31:24;149120.81;;;-4.45;100.00
23059;BME280;30585;51.502;7.218;2022-11-20T01:33:56;149095.28;;;-4.56;100.00
23059;BME280;30585;51.502;7.218;2022-11-20T01:36:26;149129.75;;;-4.42;100.00
23059;BME280;30585;51.502;7.218;2022-11-20T01:38:59;149133.56;;;-4.40;100.00
23059;BME280;30585;51.502;7.218;2022-11-20T01:41:29;149118.25;;;-4.46;100.00
23059;BME280;30585;51.502;7.218;2022-11-20T01:44:17;149108.03;;;-4.50;100.00
23059;BME280;30585;51.502;7.218;2022-11-20T01:46:53;149100.38;;;-4.54;100.00
23059;BME280;30585;51.502;7.218;2022-11-20T01:49:28;149090.16;;;-4.58;100.00
23059;BME280;30585;51.502;7.218;2022-11-20T01:51:58;149074.84;;;-4.64;100.00
23059;BME280;30585;51.502;7.218;2022-11-20T01:54:34;149069.72;;;-4.66;100.00
23059;BME280;30585;51.502;7.218;2022-11-20T01:57:04;149072.28;;;-4.65;100.00
23059;BME280;30585;51.502;7.218;2022-11-20T01:59:35;149081.22;;;-4.61;100.00
23059;BME280;30585;51.502;7.218;2022-11-20T02:02:05;149069.72;;;-4.66;100.00
23059;BME280;30585;51.502;7.218;2022-11-20T02:04:33;149073.53;;;-4.64;100.00
23059;BME280;30585;51.502;7.218;2022-11-20T02:07:02;149069.72;;;-4.66;100.00
23059;BME280;30585;51.502;7.218;2022-11-20T02:09:32;149079.97;;;-4.62;100.00
23059;BME280;30585;51.502;7.218;2022-11-20T02:12:00;149092.72;;;-4.57;100.00
23059;BME280;30585;51.502;7.218;2022-11-20T02:14:28;149091.47;;;-4.57;100.00
23059;BME280;30585;51.502;7.218;2022-11-20T02:16:55;149115.69;;;-4.47;100.00
23059;BME280;30585;51.502;7.218;2022-11-20T02:19:27;149087.59;;;-4.59;100.00
23059;BME280;30585;51.502;7.218;2022-11-20T02:22:00;149123.38;;;-4.44;100.00
23059;BME280;30585;51.502;7.218;2022-11-20T02:24:31;149111.88;;;-4.49;100.00
23059;BME280;30585;51.502;7.218;2022-11-20T02:27:02;149073.53;;;-4.64;100.00
23059;BME280;30585;51.502;7.218;2022-11-20T02:29:33;149069.72;;;-4.66;100.00
23059;BME280;30585;51.502;7.218;2022-11-20T02:32:03;149056.94;;;-4.71;100.00
23059;BME280;30585;51.502;7.218;2022-11-20T02:34:31;149074.84;;;-4.64;100.00
23059;BME280;30585;51.502;7.218;2022-11-20T02:36:59;149040.38;;;-4.78;100.00
23059;BME280;30585;51.502;7.218;2022-11-20T02:39:28;149060.78;;;-4.70;100.00
23059;BME280;30585;51.502;7.218;2022-11-20T02:41:57;149042.94;;;-4.77;100.00
23059;BME280;30585;51.502;7.218;2022-11-20T02:44:25;149012.25;;;-4.89;100.00
23059;BME280;30585;51.502;7.218;2022-11-20T02:46:58;149026.31;;;-4.83;100.00
23059;BME280;30585;51.502;7.218;2022-11-20T02:49:27;149036.50;;;-4.79;100.00
23059;BME280;30585;51.502;7.218;2022-11-20T02:51:55;149039.06;;;-4.78;100.00
23059;BME280;30585;51.502;7.218;2022-11-20T02:54:23;149056.94;;;-4.71;100.00
23059;BME280;30585;51.502;7.218;2022-11-20T02:56:51;149039.06;;;-4.78;100.00
23059;BME280;30585;51.502;7.218;2022-11-20T02:59:20;149056.94;;;-4.71;100.00
23059;BME280;30585;51.502;7.218;2022-11-20T03:01:48;149068.47;;;-4.66;100.00
23059;BME280;30585;51.502;7.218;2022-11-20T03:04:16;149069.72;;;-4.66;100.00
23059;BME280;30585;51.502;7.218;2022-11-20T03:06:44;149087.59;;;-4.59;100.00
23059;BME280;30585;51.502;7.218;2022-11-20T03:09:12;149085.03;;;-4.60;100.00
23059;BME280;30585;51.502;7.218;2022-11-20T03:11:40;149083.78;;;-4.60;100.00
23059;BME280;30585;51.502;7.218;2022-11-20T03:14:07;149083.78;;;-4.60;100.00
23059;BME280;30585;51.502;7.218;2022-11-20T03:16:36;149063.34;;;-4.68;100.00
23059;BME280;30585;51.502;7.218;2022-11-20T03:19:04;149062.03;;;-4.69;100.00
23059;BME280;30585;51.502;7.218;2022-11-20T03:21:33;149060.78;;;-4.70;100.00
23059;BME280;30585;51.502;7.218;2022-11-20T03:24:01;149083.78;;;-4.60;100.00
23059;BME280;30585;51.502;7.218;2022-11-20T03:26:29;149053.13;;;-4.73;100.00
23059;BME280;30585;51.502;7.218;2022-11-20T03:28:58;149069.72;;;-4.66;100.00
23059;BME280;30585;51.502;7.218;2022-11-20T03:31:28;149060.78;;;-4.70;100.00
23059;BME280;30585;51.502;7.218;2022-11-20T03:33:58;149058.22;;;-4.71;100.00
23059;BME280;30585;51.502;7.218;2022-11-20T03:36:26;149090.16;;;-4.58;100.00
23059;BME280;30585;51.502;7.218;2022-11-20T03:38:55;149072.28;;;-4.65;100.00
23059;BME280;30585;51.502;7.218;2022-11-20T03:41:25;149110.59;;;-4.49;100.00
23059;BME280;30585;51.502;7.218;2022-11-20T03:43:54;149120.81;;;-4.45;100.00
23059;BME280;30585;51.502;7.218;2022-11-20T03:46:22;149169.38;;;-4.26;100.00
23059;BME280;30585;51.502;7.218;2022-11-20T03:48:50;149171.94;;;-4.25;100.00
23059;BME280;30585;51.502;7.218;2022-11-20T03:51:21;149191.06;;;-4.17;100.00
23059;BME280;30585;51.502;7.218;2022-11-20T03:53:51;149210.25;;;-4.09;100.00
23059;BME280;30585;51.502;7.218;2022-11-20T03:56:22;149231.97;;;-4.00;100.00
23059;BME280;30585;51.502;7.218;2022-11-20T03:58:51;149252.44;;;-3.92;100.00
23059;BME280;30585;51.502;7.218;2022-11-20T04:01:20;149240.91;;;-3.97;100.00
23059;BME280;30585;51.502;7.218;2022-11-20T04:03:49;149239.63;;;-3.97;100.00
23059;BME280;30585;51.502;7.218;2022-11-20T04:06:19;149258.81;;;-3.89;100.00
23059;BME280;30585;51.502;7.218;2022-11-20T04:08:48;149283.06;;;-3.80;100.00
23059;BME280;30585;51.502;7.218;2022-11-20T04:11:21;149284.38;;;-3.79;100.00
23059;BME280;30585;51.502;7.218;2022-11-20T04:13:51;149265.19;;;-3.87;100.00
23059;BME280;30585;51.502;7.218;2022-11-20T04:16:19;149288.19;;;-3.78;100.00
23059;BME280;30585;51.502;7.218;2022-11-20T04:18:51;149292.03;;;-3.76;100.00
23059;BME280;30585;51.502;7.218;2022-11-20T04:21:19;149301.00;;;-3.72;100.00
23059;BME280;30585;51.502;7.218;2022-11-20T04:23:48;149306.13;;;-3.70;100.00
23059;BME280;30585;51.502;7.218;2022-11-20T04:26:16;149322.69;;;-3.64;100.00
23059;BME280;30585;51.502;7.218;2022-11-20T04:28:44;149304.81;;;-3.71;100.00
23059;BME280;30585;51.502;7.218;2022-11-20T04:31:13;149316.31;;;-3.66;100.00
23059;BME280;30585;51.502;7.218;2022-11-20T04:33:41;149338.06;;;-3.57;100.00
23059;BME280;30585;51.502;7.218;2022-11-20T04:36:11;149347.00;;;-3.54;100.00
23059;BME280;30585;51.502;7.218;2022-11-20T04:38:39;149352.13;;;-3.52;100.00
23059;BME280;30585;51.502;7.218;2022-11-20T04:41:12;149340.63;;;-3.56;100.00
23059;BME280;30585;51.502;7.218;2022-11-20T04:43:41;149381.50;;;-3.40;100.00
23059;BME280;30585;51.502;7.218;2022-11-20T04:46:13;149387.91;;;-3.37;100.00
23059;BME280;30585;51.502;7.218;2022-11-20T04:48:41;149394.28;;;-3.35;100.00
23059;BME280;30585;51.502;7.218;2022-11-20T04:51:08;149389.22;;;-3.37;100.00
23059;BME280;30585;51.502;7.218;2022-11-20T04:53:36;149384.09;;;-3.39;100.00
23059;BME280;30585;51.502;7.218;2022-11-20T04:56:05;149386.66;;;-3.38;100.00
23059;BME280;30585;51.502;7.218;2022-11-20T04:58:35;149385.34;;;-3.38;100.00
23059;BME280;30585;51.502;7.218;2022-11-20T05:01:02;149375.13;;;-3.42;100.00
23059;BME280;30585;51.502;7.218;2022-11-20T05:03:30;149368.72;;;-3.45;100.00
23059;BME280;30585;51.502;7.218;2022-11-20T05:06:00;149341.88;;;-3.56;100.00
23059;BME280;30585;51.502;7.218;2022-11-20T05:08:28;149366.16;;;-3.46;100.00
23059;BME280;30585;51.502;7.218;2022-11-20T05:10:59;149366.16;;;-3.46;100.00
23059;BME280;30585;51.502;7.218;2022-11-20T05:13:27;149355.94;;;-3.50;100.00
23059;BME280;30585;51.502;7.218;2022-11-20T05:16:01;149355.94;;;-3.50;100.00
23059;BME280;30585;51.502;7.218;2022-11-20T05:18:29;149350.81;;;-3.52;100.00
23059;BME280;30585;51.502;7.218;2022-11-20T05:20:57;149344.44;;;-3.55;100.00
23059;BME280;30585;51.502;7.218;2022-11-20T05:23:26;149350.81;;;-3.52;100.00
23059;BME280;30585;51.502;7.218;2022-11-20T05:25:55;149364.88;;;-3.47;100.00
23059;BME280;30585;51.502;7.218;2022-11-20T05:28:25;149358.50;;;-3.49;100.00
23059;BME280;30585;51.502;7.218;2022-11-20T05:30:53;149373.84;;;-3.43;100.00
23059;BME280;30585;51.502;7.218;2022-11-20T05:33:22;149370.00;;;-3.45;100.00
23059;BME280;30585;51.502;7.218;2022-11-20T05:35:50;149380.22;;;-3.40;100.00
23059;BME280;30585;51.502;7.218;2022-11-20T05:38:17;149381.50;;;-3.40;100.00
23059;BME280;30585;51.502;7.218;2022-11-20T05:40:45;149387.91;;;-3.37;100.00
23059;BME280;30585;51.502;7.218;2022-11-20T05:43:13;149386.66;;;-3.38;100.00
23059;BME280;30585;51.502;7.218;2022-11-20T05:45:40;149416.03;;;-3.26;100.00
23059;BME280;30585;51.502;7.218;2022-11-20T05:48:08;149399.41;;;-3.33;100.00
23059;BME280;30585;51.502;7.218;2022-11-20T05:50:37;149391.72;;;-3.36;100.00
23059;BME280;30585;51.502;7.218;2022-11-20T05:53:05;149387.91;;;-3.37;100.00
23059;BME280;30585;51.502;7.218;2022-11-20T05:55:33;149386.66;;;-3.38;100.00
23059;BME280;30585;51.502;7.218;2022-11-20T05:58:00;149400.72;;;-3.32;100.00
23059;BME280;30585;51.502;7.218;2022-11-20T06:00:28;149413.47;;;-3.27;100.00
23059;BME280;30585;51.502;7.218;2022-11-20T06:02:55;149398.16;;;-3.33;100.00
23059;BME280;30585;51.502;7.218;2022-11-20T06:05:24;149385.34;;;-3.38;100.00
23059;BME280;30585;51.502;7.218;2022-11-20T06:07:53;149389.22;;;-3.37;100.00
23059;BME280;30585;51.502;7.218;2022-11-20T06:10:20;149414.72;;;-3.26;100.00
23059;BME280;30585;51.502;7.218;2022-11-20T06:12:48;149421.16;;;-3.24;100.00
23059;BME280;30585;51.502;7.218;2022-11-20T06:15:16;149418.59;;;-3.25;100.00
23059;BME280;30585;51.502;7.218;2022-11-20T06:17:43;149441.63;;;-3.16;100.00
23059;BME280;30585;51.502;7.218;2022-11-20T06:20:11;149440.31;;;-3.16;100.00
23059;BME280;30585;51.502;7.218;2022-11-20T06:22:39;149437.75;;;-3.17;100.00
23059;BME280;30585;51.502;7.218;2022-11-20T06:25:08;149423.72;;;-3.23;100.00
23059;BME280;30585;51.502;7.218;2022-11-20T06:27:35;149445.44;;;-3.14;100.00
23059;BME280;30585;51.502;7.218;2022-11-20T06:30:04;149430.09;;;-3.20;100.00
23059;BME280;30585;51.502;7.218;2022-11-20T06:32:32;149437.75;;;-3.17;100.00
23059;BME280;30585;51.502;7.218;2022-11-20T06:35:00;149453.13;;;-3.11;100.00
23059;BME280;30585;51.502;7.218;2022-11-20T06:37:28;149439.06;;;-3.17;100.00
23059;BME280;30585;51.502;7.218;2022-11-20T06:39:55;149436.50;;;-3.18;100.00
23059;BME280;30585;51.502;7.218;2022-11-20T06:42:24;149417.28;;;-3.25;100.00
23059;BME280;30585;51.502;7.218;2022-11-20T06:44:52;149433.94;;;-3.19;100.00
23059;BME280;30585;51.502;7.218;2022-11-20T06:47:20;149445.44;;;-3.14;100.00
23059;BME280;30585;51.502;7.218;2022-11-20T06:49:47;149419.84;;;-3.24;100.00
23059;BME280;30585;51.502;7.218;2022-11-20T06:52:17;149401.97;;;-3.32;100.00
23059;BME280;30585;51.502;7.218;2022-11-20T06:54:45;149431.38;;;-3.20;100.00
23059;BME280;30585;51.502;7.218;2022-11-20T06:57:13;149430.09;;;-3.20;100.00
23059;BME280;30585;51.502;7.218;2022-11-20T06:59:41;149414.72;;;-3.26;100.00
23059;BME280;30585;51.502;7.218;2022-11-20T07:02:10;149413.47;;;-3.27;100.00
23059;BME280;30585;51.502;7.218;2022-11-20T07:04:38;149410.91;;;-3.28;100.00
23059;BME280;30585;51.502;7.218;2022-11-20T07:07:06;149409.66;;;-3.29;100.00
23059;BME280;30585;51.502;7.218;2022-11-20T07:09:34;149371.28;;;-3.44;100.00
23059;BME280;30585;51.502;7.218;2022-11-20T07:12:08;149371.28;;;-3.44;100.00
23059;BME280;30585;51.502;7.218;2022-11-20T07:14:35;149359.75;;;-3.49;100.00
23059;BME280;30585;51.502;7.218;2022-11-20T07:17:05;149348.25;;;-3.53;100.00
23059;BME280;30585;51.502;7.218;2022-11-20T07:19:32;149338.06;;;-3.57;100.00
23059;BME280;30585;51.502;7.218;2022-11-20T07:22:00;149320.13;;;-3.65;100.00
23059;BME280;30585;51.502;7.218;2022-11-20T07:24:28;149357.19;;;-3.50;100.00
23059;BME280;30585;51.502;7.218;2022-11-20T07:26:55;149389.22;;;-3.37;100.00
23059;BME280;30585;51.502;7.218;2022-11-20T07:29:23;149343.13;;;-3.55;100.00
23059;BME280;30585;51.502;7.218;2022-11-20T07:31:51;149361.06;;;-3.48;100.00
23059;BME280;30585;51.502;7.218;2022-11-20T07:34:20;149334.19;;;-3.59;100.00
23059;BME280;30585;51.502;7.218;2022-11-20T07:36:48;149315.06;;;-3.67;100.00
23059;BME280;30585;51.502;7.218;2022-11-20T07:39:15;149327.81;;;-3.62;100.00
23059;BME280;30585;51.502;7.218;2022-11-20T07:41:43;149327.81;;;-3.62;100.00
23059;BME280;30585;51.502;7.218;2022-11-20T07:44:11;149303.56;;;-3.71;100.00
23059;BME280;30585;51.502;7.218;2022-11-20T07:46:39;149294.56;;;-3.75;100.00
23059;BME280;30585;51.502;7.218;2022-11-20T07:49:06;149326.56;;;-3.62;100.00
23059;BME280;30585;51.502;7.218;2022-11-20T07:51:35;149335.50;;;-3.58;100.00
23059;BME280;30585;51.502;7.218;2022-11-20T07:54:03;149320.13;;;-3.65;100.00
23059;BME280;30585;51.502;7.218;2022-11-20T07:56:31;149304.81;;;-3.71;100.00
23059;BME280;30585;51.502;7.218;2022-11-20T07:58:58;149301.00;;;-3.72;100.00
23059;BME280;30585;51.502;7.218;2022-11-20T08:01:26;149340.63;;;-3.56;100.00
23059;BME280;30585;51.502;7.218;2022-11-20T08:03:54;149324.00;;;-3.63;100.00
23059;BME280;30585;51.502;7.218;2022-11-20T08:06:21;149316.31;;;-3.66;100.00
23059;BME280;30585;51.502;7.218;2022-11-20T08:08:52;149327.81;;;-3.62;100.00
23059;BME280;30585;51.502;7.218;2022-11-20T08:11:20;149322.69;;;-3.64;100.00
23059;BME280;30585;51.502;7.218;2022-11-20T08:14:05;149341.88;;;-3.56;100.00
23059;BME280;30585;51.502;7.218;2022-11-20T08:16:43;149348.25;;;-3.53;100.00
23059;BME280;30585;51.502;7.218;2022-11-20T08:19:12;149361.06;;;-3.48;100.00
23059;BME280;30585;51.502;7.218;2022-11-20T08:21:40;149373.84;;;-3.43;100.00
23059;BME280;30585;51.502;7.218;2022-11-20T08:24:10;149391.72;;;-3.36;100.00
23059;BME280;30585;51.502;7.218;2022-11-20T08:26:38;149390.47;;;-3.36;100.00
23059;BME280;30585;51.502;7.218;2022-11-20T08:29:07;149408.34;;;-3.29;100.00
23059;BME280;30585;51.502;7.218;2022-11-20T08:31:35;149410.91;;;-3.28;100.00
23059;BME280;30585;51.502;7.218;2022-11-20T08:34:03;149424.97;;;-3.22;100.00
23059;BME280;30585;51.502;7.218;2022-11-20T08:36:35;149453.13;;;-3.11;100.00
23059;BME280;30585;51.502;7.218;2022-11-20T08:39:03;149453.13;;;-3.11;100.00
23059;BME280;30585;51.502;7.218;2022-11-20T08:41:32;149463.31;;;-3.07;100.00
23059;BME280;30585;51.502;7.218;2022-11-20T08:44:01;149468.44;;;-3.05;100.00
23059;BME280;30585;51.502;7.218;2022-11-20T08:46:33;149523.44;;;-2.83;100.00
23059;BME280;30585;51.502;7.218;2022-11-20T08:49:01;149541.38;;;-2.75;100.00
23059;BME280;30585;51.502;7.218;2022-11-20T08:51:30;149551.59;;;-2.71;100.00
23059;BME280;30585;51.502;7.218;2022-11-20T08:53:58;149575.94;;;-2.61;100.00
23059;BME280;30585;51.502;7.218;2022-11-20T08:56:25;149609.16;;;-2.48;100.00
23059;BME280;30585;51.502;7.218;2022-11-20T08:58:54;149642.44;;;-2.35;100.00
23059;BME280;30585;51.502;7.218;2022-11-20T09:01:42;149660.34;;;-2.27;100.00
23059;BME280;30585;51.502;7.218;2022-11-20T09:04:10;149683.38;;;-2.18;100.00
23059;BME280;30585;51.502;7.218;2022-11-20T09:06:40;149729.47;;;-1.99;100.00
23059;BME280;30585;51.502;7.218;2022-11-20T09:09:08;149772.97;;;-1.82;100.00
23059;BME280;30585;51.502;7.218;2022-11-20T09:11:35;149780.66;;;-1.79;100.00
23059;BME280;30585;51.502;7.218;2022-11-20T09:14:04;149829.31;;;-1.59;100.00
23059;BME280;30585;51.502;7.218;2022-11-20T09:16:32;149847.22;;;-1.52;100.00
23059;BME280;30585;51.502;7.218;2022-11-20T09:19:00;149871.59;;;-1.42;100.00
23059;BME280;30585;51.502;7.218;2022-11-20T09:21:48;149939.44;;;-1.15;100.00
23059;BME280;30585;51.502;7.218;2022-11-20T09:24:15;149990.69;;;-0.94;100.00
23059;BME280;30585;51.502;7.218;2022-11-20T09:26:43;150031.72;;;-0.77;100.00
23059;BME280;30585;51.502;7.218;2022-11-20T09:29:13;150048.34;;;-0.71;100.00
23059;BME280;30585;51.502;7.218;2022-11-20T09:31:40;150056.03;;;-0.68;100.00
23059;BME280;30585;51.502;7.218;2022-11-20T09:34:08;150079.09;;;-0.58;100.00
23059;BME280;30585;51.502;7.218;2022-11-20T09:36:36;150100.91;;;-0.50;100.00
23059;BME280;30585;51.502;7.218;2022-11-20T09:39:04;150116.28;;;-0.43;100.00
23059;BME280;30585;51.502;7.218;2022-11-20T09:41:49;150145.75;;;-0.32;100.00
23059;BME280;30585;51.502;7.218;2022-11-20T09:44:33;150177.78;;;-0.19;100.00
23059;BME280;30585;51.502;7.218;2022-11-20T09:47:08;150211.13;;;-0.05;100.00
23059;BME280;30585;51.502;7.218;2022-11-20T09:49:50;150244.50;;;0.08;100.00
23059;BME280;30585;51.502;7.218;2022-11-20T09:52:22;150270.13;;;0.19;100.00
23059;BME280;30585;51.502;7.218;2022-11-20T09:54:54;150304.75;;;0.33;100.00
23059;BME280;30585;51.502;7.218;2022-11-20T09:57:34;150340.66;;;0.47;100.00
23059;BME280;30585;51.502;7.218;2022-11-20T10:00:06;150374.00;;;0.60;100.00
23059;BME280;30585;51.502;7.218;2022-11-20T10:02:41;150404.75;;;0.73;100.00
23059;BME280;30585;51.502;7.218;2022-11-20T10:05:12;150431.75;;;0.84;100.00
23059;BME280;30585;51.502;7.218;2022-11-20T10:07:45;150454.81;;;0.93;100.00
23059;BME280;30585;51.502;7.218;2022-11-20T10:10:16;150467.63;;;0.98;100.00
23059;BME280;30585;51.502;7.218;2022-11-20T10:12:56;150489.47;;;1.07;100.00
23059;BME280;30585;51.502;7.218;2022-11-20T10:15:34;150516.41;;;1.18;100.00
23059;BME280;30585;51.502;7.218;2022-11-20T10:18:14;150525.38;;;1.21;100.00
23059;BME280;30585;51.502;7.218;2022-11-20T10:20:49;150533.09;;;1.24;100.00
23059;BME280;30585;51.502;7.218;2022-11-20T10:23:44;150562.59;;;1.36;100.00
23059;BME280;30585;51.502;7.218;2022-11-20T10:26:19;150585.69;;;1.46;100.00
23059;BME280;30585;51.502;7.218;2022-11-20T10:29:06;150604.97;;;1.53;100.00
23059;BME280;30585;51.502;7.218;2022-11-20T10:31:40;150629.38;;;1.63;100.00
23059;BME280;30585;51.502;7.218;2022-11-20T10:34:19;150652.50;;;1.73;100.00
23059;BME280;30585;51.502;7.218;2022-11-20T10:36:52;150671.72;;;1.80;100.00
23059;BME280;30585;51.502;7.218;2022-11-20T10:39:29;150703.81;;;1.93;100.00
23059;BME280;30585;51.502;7.218;2022-11-20T10:42:00;150728.25;;;2.03;100.00
23059;BME280;30585;51.502;7.218;2022-11-20T10:44:29;150724.41;;;2.01;100.00
23059;BME280;30585;51.502;7.218;2022-11-20T10:47:21;150777.03;;;2.23;100.00
23059;BME280;30585;51.502;7.218;2022-11-20T10:49:51;150793.75;;;2.29;100.00
23059;BME280;30585;51.502;7.218;2022-11-20T10:52:28;150821.97;;;2.41;100.00
23059;BME280;30585;51.502;7.218;2022-11-20T10:55:09;150773.19;;;2.21;100.00
23059;BME280;30585;51.502;7.218;2022-11-20T10:57:51;150782.19;;;2.25;100.00
23059;BME280;30585;51.502;7.218;2022-11-20T11:00:20;150744.94;;;2.10;100.00
23059;BME280;30585;51.502;7.218;2022-11-20T11:02:51;150764.16;;;2.17;100.00
23059;BME280;30585;51.502;7.218;2022-11-20T11:05:36;150804.00;;;2.33;100.00
23059;BME280;30585;51.502;7.218;2022-11-20T11:08:09;150820.72;;;2.40;100.00
23059;BME280;30585;51.502;7.218;2022-11-20T11:10:44;150855.38;;;2.54;100.00
23059;BME280;30585;51.502;7.218;2022-11-20T11:13:21;150875.94;;;2.62;100.00
23059;BME280;30585;51.502;7.218;2022-11-20T11:15:49;150896.50;;;2.71;100.00
23059;BME280;30585;51.502;7.218;2022-11-20T11:18:26;150922.19;;;2.81;100.00
23059;BME280;30585;51.502;7.218;2022-11-20T11:20:55;150927.34;;;2.83;100.00
23059;BME280;30585;51.502;7.218;2022-11-20T11:23:31;150906.78;;;2.75;100.00
23059;BME280;30585;51.502;7.218;2022-11-20T11:26:01;150877.25;;;2.63;100.00
23059;BME280;30585;51.502;7.218;2022-11-20T11:28:29;150900.38;;;2.72;100.00
23059;BME280;30585;51.502;7.218;2022-11-20T11:30:57;150895.22;;;2.70;100.00
23059;BME280;30585;51.502;7.218;2022-11-20T11:33:28;150955.63;;;2.94;100.00
23059;BME280;30585;51.502;7.218;2022-11-20T11:35:57;150980.00;;;3.04;100.00
23059;BME280;30585;51.502;7.218;2022-11-20T11:38:34;150980.00;;;3.04;100.00
23059;BME280;30585;51.502;7.218;2022-11-20T11:41:03;150958.19;;;2.95;100.00
23059;BME280;30585;51.502;7.218;2022-11-20T11:43:33;150978.75;;;3.04;100.00
23059;BME280;30585;51.502;7.218;2022-11-20T11:46:28;151001.88;;;3.13;100.00
23059;BME280;30585;51.502;7.218;2022-11-20T11:49:00;151023.75;;;3.22;100.00
23059;BME280;30585;51.502;7.218;2022-11-20T11:51:33;151045.56;;;3.31;100.00
23059;BME280;30585;51.502;7.218;2022-11-20T11:54:08;151039.16;;;3.28;100.00
23059;BME280;30585;51.502;7.218;2022-11-20T11:56:41;151032.75;;;3.25;100.00
23059;BME280;30585;51.502;7.218;2022-11-20T11:59:14;151043.00;;;3.30;100.00
23059;BME280;30585;51.502;7.218;2022-11-20T12:01:47;151043.00;;;3.30;100.00
23059;BME280;30585;51.502;7.218;2022-11-20T12:04:27;151063.56;;;3.38;100.00
23059;BME280;30585;51.502;7.218;2022-11-20T12:07:10;151089.28;;;3.48;100.00
23059;BME280;30585;51.502;7.218;2022-11-20T12:09:58;151113.72;;;3.58;100.00
23059;BME280;30585;51.502;7.218;2022-11-20T12:12:32;151104.75;;;3.54;99.75
23059;BME280;30585;51.502;7.218;2022-11-20T12:15:04;151116.31;;;3.59;99.37
23059;BME280;30585;51.502;7.218;2022-11-20T12:17:32;151091.84;;;3.49;98.54
23059;BME280;30585;51.502;7.218;2022-11-20T12:20:01;151109.84;;;3.56;100.00
23059;BME280;30585;51.502;7.218;2022-11-20T12:22:35;151107.31;;;3.55;100.00
23059;BME280;30585;51.502;7.218;2022-11-20T12:25:10;151135.56;;;3.67;100.00
23059;BME280;30585;51.502;7.218;2022-11-20T12:27:54;151121.41;;;3.61;100.00
23059;BME280;30585;51.502;7.218;2022-11-20T12:30:28;151136.88;;;3.67;100.00
23059;BME280;30585;51.502;7.218;2022-11-20T12:33:17;151143.28;;;3.70;99.98
23059;BME280;30585;51.502;7.218;2022-11-20T12:35:59;151115.00;;;3.58;100.00
23059;BME280;30585;51.502;7.218;2022-11-20T12:39:02;151112.41;;;3.57;97.20
23059;BME280;30585;51.502;7.218;2022-11-20T12:41:57;151103.44;;;3.54;98.14
23059;BME280;30585;51.502;7.218;2022-11-20T12:44:57;151115.00;;;3.58;100.00
23059;BME280;30585;51.502;7.218;2022-11-20T12:47:52;151089.28;;;3.48;99.66
23059;BME280;30585;51.502;7.218;2022-11-20T12:50:33;151089.28;;;3.48;100.00
23059;BME280;30585;51.502;7.218;2022-11-20T12:53:31;151064.88;;;3.38;100.00
23059;BME280;30585;51.502;7.218;2022-11-20T12:56:09;151081.59;;;3.45;98.43
23059;BME280;30585;51.502;7.218;2022-11-20T12:58:46;151066.13;;;3.39;100.00
23059;BME280;30585;51.502;7.218;2022-11-20T13:01:23;151048.16;;;3.32;100.00
23059;BME280;30585;51.502;7.218;2022-11-20T13:04:14;151054.56;;;3.34;100.00